Station: Merimbula  

  Atmospheric Gas Attenuation - ITU Rec 676-11   ----------------- dB/100km -----------------
Date Time Temp RH % AH g/m3 Dew Point Wind Direction Speed kph Gust kph Barometer mB Rainfall Since 9am 24GHz 47GHz 76GHz 122GHz 134GHz 241GHz
08/05 12:30 17.8 47 7.13 6.3 20 39 1015 0 16.3 22.6 32.5 85.0 75.7 259.5
08/05 12:20 17.9 48 7.33 6.7 20 24 1014.9 0 16.7 22.9 33.2 86.8 78.0 267.5
08/05 12:10 17.9 47 7.18 6.4 20 26 1014.9 0 16.4 22.7 32.6 85.3 76.2 261.2
08/05 12:00 18 48 7.37 6.8 17 30 1014.8 0 16.8 22.9 33.3 87.0 78.4 268.8
08/05 11:50 18 46 7.06 6.2 22 33 1014.4 0 16.1 22.5 32.1 84.0 74.7 255.8
08/05 11:40 18.2 46 7.15 6.4 22 28 1014.3 0 16.3 22.5 32.4 84.7 75.5 258.9
08/05 11:30 18.2 47 7.3 6.7 22 39 1014.3 0 16.6 22.8 32.9 86.1 77.3 265.1
08/05 11:20 17.7 48 7.24 6.6 19 24 1014.4 0 16.5 22.8 32.9 86.1 77.1 264.2
08/05 11:10 17.8 48 7.28 6.7 22 37 1014.4 0 16.6 22.8 33.0 86.4 77.5 265.6
08/05 11:00 18.1 48 7.42 6.9 26 43 1014.3 0 16.9 23.0 33.4 87.4 78.8 270.4
08/05 10:50 18.2 48 7.46 7 24 35 1014.1 0 17.0 23.0 33.5 87.6 79.2 271.7
08/05 10:40 18.4 46 7.23 6.6 28 44 1014 0 16.5 22.6 32.6 85.2 76.3 261.5
08/05 10:30 18.6 47 7.48 7.1 26 56 1013.9 0 17.0 22.9 33.4 87.4 79.0 271.2
08/05 10:20 18.2 47 7.3 6.7 28 37 1014 0 16.6 22.7 32.9 86.1 77.3 265.0
08/05 10:10 18.1 46 7.11 6.3 22 32 1013.8 0 16.2 22.5 32.3 84.3 75.1 257.4
08/05 10:00 18.2 47 7.3 6.7 28 50 1013.7 0 16.6 22.7 32.9 86.1 77.3 265.0
08/05 09:50 18 49 7.53 7.1 24 32 1013.7 0 17.1 23.1 33.8 88.5 80.2 275.2
08/05 09:40 17.9 49 7.48 7 17 28 1013.7 0 17.0 23.1 33.7 88.1 79.7 273.5
08/05 09:30 17.8 49 7.44 7 22 44 1013.6 0 16.9 23.0 33.6 87.8 79.3 272.1
08/05 09:20 17.6 50 7.5 7.1 22 35 1013.6 0 17.1 23.2 33.9 88.6 80.2 275.3
08/05 09:10 17.5 52 7.75 7.5 26 35 1013.6 0 17.6 23.6 34.8 91.2 83.4 286.3
08/05 09:00 17.5 51 7.6 7.3 24 56 1013.5 0 17.3 23.3 34.3 89.7 81.5 279.9
08/05 08:50 17.3 52 7.66 7.4 26 32 1013.5 0 17.4 23.5 34.6 90.5 82.5 283.1
08/05 08:40 17.2 53 7.76 7.5 19 26 1013.5 0 17.6 23.7 35.0 91.6 83.8 287.8
08/05 08:30 17 54 7.81 7.6 19 30 1013.4 0 17.8 23.8 35.2 92.3 84.6 290.6
08/05 08:20 16.8 53 7.58 7.2 26 37 1013.3 0 17.3 23.5 34.5 90.3 82.0 281.4
08/05 08:10 16.8 54 7.72 7.4 13 15 1013.5 0 17.6 23.7 35.0 91.7 83.7 287.5
08/05 08:00 16.6 53 7.49 7 17 30 1013.4 0 17.1 23.4 34.2 89.6 81.1 278.3
08/05 07:50 16.3 55 7.63 7.3 11 17 1013.2 0 17.4 23.7 34.9 91.3 83.1 285.3
08/05 07:40 15.3 58 7.57 7.1 11 11 1013.1 0 17.3 23.9 35.1 91.9 83.4 286.3
08/05 07:30 15.1 57 7.35 6.7 15 26 1012.8 0 16.9 23.6 34.3 89.8 80.9 277.3
08/05 07:20 15.2 57 7.4 6.7 11 15 1012.6 0 17.0 23.6 34.5 90.2 81.4 279.1
08/05 07:10 15 56 7.18 6.3 15 22 1012.5 0 16.5 23.3 33.7 88.2 78.9 270.2
08/05 07:00 14.3 59 7.25 6.4 13 22 1012.3 0 16.7 23.6 34.3 89.7 80.4 275.6
08/05 06:50 14.6 58 7.26 6.4 13 15 1012.3 0 16.7 23.5 34.2 89.5 80.2 275.0
08/05 06:40 14.3 58 7.13 6.2 9 9 1012.2 0 16.4 23.4 33.8 88.5 78.9 270.4
08/05 06:30 14.5 57 7.09 6.1 17 32 1012.1 0 16.3 23.3 33.6 87.8 78.2 267.9
08/05 06:20 14.3 58 7.13 6.2 15 17 1012.2 0 16.4 23.4 33.8 88.5 78.9 270.4
08/05 06:10 14.4 57 7.05 6 13 17 1012 0 16.3 23.3 33.5 87.5 77.8 266.5
08/05 06:00 14.1 59 7.16 6.2 11 17 1012 0 16.5 23.5 34.0 89.0 79.5 272.3
08/05 05:50 14.5 57 7.09 6.1 11 15 1011.9 0 16.3 23.3 33.6 87.8 78.2 267.9
08/05 05:40 14.2 59 7.2 6.3 13 17 1012 0 16.6 23.5 34.1 89.3 79.9 273.7
08/05 05:30 14.4 57 7.05 6 11 22 1011.9 0 16.3 23.3 33.5 87.5 77.8 266.5
08/05 05:20 14.2 59 7.2 6.3 15 20 1012 0 16.6 23.5 34.1 89.3 79.9 273.7
08/05 05:10 14.1 58 7.04 6 15 17 1012 0 16.3 23.3 33.5 87.8 78.0 267.1
08/05 05:00 14.3 56 6.88 5.7 13 20 1012.2 0 15.9 23.0 32.9 86.0 75.8 259.5
08/05 04:50 14.1 57 6.92 5.7 15 17 1012.2 0 16.0 23.1 33.1 86.6 76.5 261.9
08/05 04:40 14 58 7 5.9 20 24 1012.1 0 16.2 23.3 33.4 87.5 77.6 265.7
08/05 04:30 13.8 59 7.03 5.9 17 26 1012.1 0 16.2 23.4 33.6 88.0 78.2 267.7
08/05 04:20 13.3 61 7.05 5.9 13 17 1012.1 0 16.3 23.5 33.9 88.8 78.9 270.2
08/05 04:10 12.9 62 6.99 5.8 20 26 1012.2 0 16.2 23.6 33.9 88.6 78.6 269.0
08/05 04:00 12.8 63 7.06 5.9 19 28 1012.1 0 16.3 23.7 34.2 89.4 79.6 272.4
08/05 03:50 12.5 62 6.82 5.4 22 26 1012.2 0 15.8 23.4 33.4 87.3 76.8 262.8
08/05 03:40 12.3 61 6.62 5 17 20 1012.5 0 15.4 23.2 32.7 85.5 74.6 254.7
08/05 03:30 12.2 61 6.58 4.9 17 26 1012.5 0 15.3 23.1 32.6 85.2 74.1 253.3
08/05 03:20 12.3 60 6.52 4.8 20 22 1012.5 0 15.2 23.0 32.3 84.5 73.3 250.4
08/05 03:10 12.3 58 6.3 4.3 20 24 1012.5 0 14.7 22.7 31.5 82.3 70.6 240.8
08/05 03:00 12.3 58 6.3 4.3 20 35 1012.8 0 14.7 22.7 31.5 82.3 70.6 240.9
08/05 02:50 12 59 6.29 4.2 22 28 1012.8 0 14.7 22.7 31.6 82.6 70.7 241.3
08/05 02:40 11.9 59 6.25 4.2 24 33 1013.1 0 14.7 22.7 31.5 82.3 70.4 240.0
08/05 02:30 11.7 60 6.28 4.2 20 28 1013 0 14.7 22.8 31.7 82.8 70.9 241.9
08/05 02:20 11.6 59 6.13 3.9 19 24 1013.3 0 14.4 22.6 31.2 81.4 69.1 235.7
08/05 02:10 11.5 59 6.1 3.8 20 24 1013.5 0 14.4 22.6 31.1 81.2 68.9 234.7
08/05 02:00 11.4 59 6.06 3.7 20 30 1013.6 0 14.3 22.6 31.0 80.9 68.5 233.3
08/05 01:50 11.2 60 6.08 3.7 17 22 1013.8 0 14.3 22.7 31.2 81.4 68.9 234.8
08/05 01:40 11.1 60 6.04 3.6 13 17 1014.1 0 14.2 22.6 31.1 81.1 68.5 233.4
08/05 01:30 10.9 61 6.07 3.7 11 20 1014.1 0 14.3 22.7 31.3 81.6 69.1 235.3
08/05 01:20 10.4 62 5.98 3.4 11 15 1014.5 0 14.1 22.7 31.1 81.2 68.4 232.9
08/05 01:10 10.3 62 5.94 3.3 6 7 1014.8 0 14.1 22.7 31.0 81.0 68.0 231.5
08/05 01:00 10.3 63 6.03 3.6 11 17 1014.9 0 14.2 22.8 31.4 81.9 69.1 235.5
08/05 00:50 10.2 62 5.9 3.3 11 13 1015.1 0 14.0 22.7 30.9 80.7 67.6 230.1
08/05 00:40 10.5 61 5.92 3.3 15 17 1015.3 0 14.0 22.6 30.9 80.6 67.6 230.1
08/05 00:20 10.2 62 5.9 3.3 7 9 1015.6 0 14.0 22.7 30.9 80.7 67.6 230.2
08/05 00:10 10.5 61 5.92 3.3 13 15 1015.8 0 14.0 22.7 30.9 80.6 67.6 230.2
08/05 00:00 10.4 61 5.88 3.2 13 20 1016 0 13.9 22.6 30.8 80.4 67.2 228.8
07/05 23:50 10.5 59 5.72 2.8 17 20 1016.1 0 13.6 22.4 30.2 78.7 65.2 221.6
07/05 23:40 10.7 57 5.6 2.5 19 22 1016.1 0 13.3 22.1 29.7 77.3 63.5 215.8
07/05 23:30 10.6 58 5.66 2.7 17 26 1016.1 0 13.4 22.3 29.9 78.0 64.4 218.7
07/05 23:20 10.7 57 5.6 2.5 15 19 1016.3 0 13.3 22.1 29.7 77.3 63.6 215.9
07/05 23:10 10.8 56 5.54 2.4 11 15 1016.5 0 13.2 22.0 29.4 76.6 62.7 213.1
07/05 23:00 10.5 56 5.43 2.1 13 20 1016.6 0 13.0 21.9 29.1 75.8 61.6 209.1
07/05 22:50 10.7 55 5.4 2 15 20 1016.8 0 12.9 21.9 28.9 75.3 61.1 207.4
07/05 22:40 10.5 55 5.34 1.9 17 20 1016.8 0 12.8 21.8 28.8 74.9 60.6 205.3
07/05 22:30 10 56 5.26 1.6 13 19 1016.9 0 12.6 21.8 28.7 74.6 60.0 203.2
07/05 22:20 10.5 54 5.24 1.6 17 24 1016.9 0 12.6 21.7 28.4 74.0 59.3 201.1
07/05 22:10 10.4 54 5.21 1.5 15 17 1017.1 0 12.5 21.7 28.4 73.8 59.1 200.1
07/05 22:00 10.4 54 5.21 1.5 13 20 1017.3 0 12.5 21.7 28.4 73.8 59.1 200.1
07/05 21:50 10.5 54 5.24 1.6 13 15 1017.4 0 12.6 21.7 28.4 74.0 59.4 201.2
07/05 21:40 10.5 53 5.14 1.3 15 20 1017.5 0 12.3 21.6 28.1 73.0 58.2 196.9
07/05 21:30 10.5 53 5.14 1.3 13 22 1017.4 0 12.3 21.5 28.1 73.0 58.2 196.9
07/05 21:20 10.4 54 5.21 1.5 15 20 1017.3 0 12.5 21.7 28.4 73.8 59.1 200.1
07/05 21:10 10.5 53 5.14 1.3 13 17 1017.2 0 12.3 21.5 28.1 73.0 58.2 196.9
07/05 21:00 10.7 52 5.11 1.3 15 22 1017.1 0 12.3 21.4 27.9 72.5 57.6 195.1
07/05 20:50 11 51 5.11 1.3 17 24 1017.2 0 12.3 21.4 27.8 72.3 57.4 194.4
07/05 20:40 10.9 51 5.07 1.2 17 20 1017.1 0 12.2 21.3 27.7 72.0 57.0 192.9
07/05 20:30 10.9 51 5.07 1.2 19 30 1017 0 12.2 21.3 27.7 72.0 57.0 192.9
07/05 20:20 10.9 51 5.07 1.2 20 26 1016.9 0 12.2 21.3 27.7 71.9 57.0 192.9
07/05 20:10 10.5 52 5.04 1.1 17 19 1017 0 12.1 21.4 27.7 72.0 56.9 192.6
07/05 20:00 10.6 51 4.98 0.9 17 26 1017 0 12.0 21.3 27.4 71.3 56.1 189.8
07/05 19:50 10.6 51 4.98 0.9 22 30 1017 0 12.0 21.3 27.4 71.3 56.1 189.8

Last Refresh: 08-May-2026 12:08:17

Bureau of Meteorology